Terminal Aerodrome Forecast
Issued by NWS Jackson, MS

Home | Current Version | Previous Version | Text Only | Print | Product List | Glossary On
Versions: 1 2 3 4 5 6 7 8 9 10 11 12 13 14 15 16 17 18 19 20 21 22 23 24
158
FTUS44 KMEG 230525
TAFTUP
TAF
KTUP 230525Z 2306/2406 18004KT P6SM SCT015 BKN035
     FM231000 20005KT P6SM BKN015
      TEMPO 2310/2313 4SM BR
     FM231800 21007KT P6SM OVC050
     FM240000 18004KT P6SM VCSH OVC050=

USA.gov is the U.S. government's official web portal to all federal, state and local government web resources and services.